Time;durP1;ratioP1;P1;durP2;ratioP2;P2;SDS_P1;SDS_P2;PMS_P1;PMS_P2;Temp;Humidity;BMP_temperature;BMP_pressure;BME280_temperature;BME280_humidity;BME280_pressure;Samples;Min_cycle;Max_cycle;Signal;HPM_P1;HPM_P2
2022/05/01 00:00:48;;;;;;;15.80;7.72;;;;;;;8.09;100.00;101398.56;5046975;28;20032;-59
2022/05/01 00:03:33;;;;;;;12.80;8.82;;;;;;;8.09;100.00;101401.19;5046838;28;20131;-59
2022/05/01 00:06:05;;;;;;;11.13;8.30;;;;;;;7.57;100.00;101317.81;5047870;28;20408;-59
2022/05/01 00:08:31;;;;;;;8.85;7.80;;;;;;;8.00;100.00;101398.81;5047465;28;20028;-59
2022/05/01 00:10:57;;;;;;;9.60;7.03;;;;;;;7.97;100.00;101392.78;5047399;28;21024;-59
2022/05/01 00:13:22;;;;;;;10.70;8.18;;;;;;;7.95;100.00;101398.03;5049400;28;20024;-59
2022/05/01 00:15:48;;;;;;;9.60;7.70;;;;;;;7.93;100.00;101386.75;5049847;28;20028;-58
2022/05/01 00:18:14;;;;;;;8.48;7.53;;;;;;;7.91;100.00;101374.63;5049994;28;20039;-58
2022/05/01 00:20:39;;;;;;;10.75;8.23;;;;;;;7.96;100.00;101377.97;5048593;28;20853;-58
2022/05/01 00:23:05;;;;;;;9.48;7.72;;;;;;;7.96;100.00;101384.06;5047030;28;20890;-58
2022/05/01 00:25:31;;;;;;;9.90;7.40;;;;;;;8.01;100.00;101384.81;5048659;28;20471;-58
2022/05/01 00:27:57;;;;;;;10.10;7.20;;;;;;;7.99;100.00;101381.38;5046509;28;20031;-58
2022/05/01 00:30:22;;;;;;;10.18;7.78;;;;;;;8.02;100.00;101383.03;5028152;28;20056;-58
2022/05/01 00:38:15;;;;;;;10.73;7.75;;;;;;;7.95;100.00;101371.88;5047175;28;20140;-58
2022/05/01 00:40:41;;;;;;;13.65;8.00;;;;;;;7.86;100.00;101359.00;5032918;28;20888;-58
2022/05/01 00:43:06;;;;;;;10.32;8.18;;;;;;;7.79;100.00;101357.44;5026566;28;20036;-58
2022/05/01 00:45:32;;;;;;;13.52;8.77;;;;;;;7.87;100.00;101370.34;5026770;28;20064;-58
2022/05/01 00:47:57;;;;;;;11.43;8.27;;;;;;;7.82;100.00;101365.22;5027360;28;20029;-58
2022/05/01 00:50:23;;;;;;;14.00;9.85;;;;;;;7.80;100.00;101367.00;5027680;28;20036;-58
2022/05/01 00:52:49;;;;;;;11.77;9.10;;;;;;;7.57;100.00;101340.53;5027231;28;20060;-58
2022/05/01 00:55:15;;;;;;;9.85;8.80;;;;;;;7.70;100.00;101363.72;5027607;28;20032;-58
2022/05/01 00:57:41;;;;;;;11.07;8.52;;;;;;;7.51;100.00;101341.50;5026070;28;20037;-58
2022/05/01 01:00:07;;;;;;;14.23;9.27;;;;;;;7.66;100.00;101364.72;5026331;28;20123;-59
2022/05/01 01:02:33;;;;;;;10.98;9.02;;;;;;;7.66;100.00;101363.84;5026145;28;20036;-59
2022/05/01 01:04:58;;;;;;;10.70;7.97;;;;;;;7.72;100.00;101379.41;5026064;28;20135;-59
2022/05/01 01:07:25;;;;;;;10.30;8.68;;;;;;;7.74;100.00;101368.91;5027764;28;20024;-59
2022/05/01 01:09:51;;;;;;;13.45;9.88;;;;;;;7.77;100.00;101361.84;5027287;28;20912;-59
2022/05/01 01:15:08;;;;;;;10.88;8.60;;;;;;;7.71;100.00;101359.34;5026245;28;20098;-59
2022/05/01 01:17:36;;;;;;;13.60;9.32;;;;;;;7.76;100.00;101370.59;5025742;28;20081;-59
2022/05/01 01:20:27;;;;;;;14.10;9.52;;;;;;;7.72;100.00;101364.56;5027349;28;20032;-59
2022/05/01 01:22:55;;;;;;;10.73;9.30;;;;;;;7.58;100.00;101342.22;5025402;28;20083;-59
2022/05/01 01:25:25;;;;;;;12.07;8.75;;;;;;;7.70;100.00;101376.81;5025910;28;20082;-59
2022/05/01 01:27:54;;;;;;;9.27;8.38;;;;;;;7.63;100.00;101374.38;5009661;28;20024;-59
2022/05/01 01:33:04;;;;;;;;;;;;;;;7.65;100.00;101370.81;5026962;28;20046;-58
2022/05/01 01:35:30;;;;;;;13.60;9.90;;;;;;;7.61;100.00;101355.22;5027866;28;19912;-59
2022/05/01 01:37:56;;;;;;;13.73;9.25;;;;;;;7.54;100.00;101354.50;5044407;28;20032;-58
2022/05/01 01:40:24;;;;;;;13.43;10.98;;;;;;;7.66;100.00;101372.56;5045484;28;20028;-59
2022/05/01 01:42:50;;;;;;;13.13;9.65;;;;;;;7.36;100.00;101320.09;5045427;28;20037;-58
2022/05/01 01:45:16;;;;;;;11.95;10.23;;;;;;;7.66;100.00;101369.06;5047090;28;20081;-59
2022/05/01 01:47:44;;;;;;;10.68;8.82;;;;;;;7.60;100.00;101372.66;5029356;28;20905;-59
2022/05/01 01:50:12;;;;;;;11.63;9.90;;;;;;;7.64;100.00;101376.06;5045890;28;20089;-59
2022/05/01 01:52:37;;;;;;;11.73;9.75;;;;;;;7.56;100.00;101357.09;5046228;28;20933;-59
2022/05/01 01:55:02;;;;;;;12.60;9.65;;;;;;;7.64;100.00;101376.06;5045470;28;20082;-58
2022/05/01 01:57:29;;;;;;;13.23;10.52;;;;;;;7.59;100.00;101351.81;5049050;28;20064;-58
2022/05/01 01:59:54;;;;;;;15.10;10.32;;;;;;;7.62;100.00;101362.19;5050588;28;20020;-58
2022/05/01 02:02:20;;;;;;;13.00;10.57;;;;;;;7.64;100.00;101360.38;5049247;28;20138;-59
2022/05/01 02:04:45;;;;;;;14.00;10.48;;;;;;;7.65;100.00;101362.13;5049014;28;20878;-59
2022/05/01 02:07:11;;;;;;;13.07;10.38;;;;;;;7.59;100.00;101346.56;5049340;28;20024;-58
2022/05/01 02:09:37;;;;;;;14.80;10.80;;;;;;;7.58;100.00;101350.06;5049166;28;20024;-59
2022/05/01 02:12:08;;;;;;;12.45;9.57;;;;;;;7.62;100.00;101356.97;5049203;28;20047;-59
2022/05/01 02:14:36;;;;;;;14.00;9.80;;;;;;;7.62;100.00;101359.56;5050140;28;20233;-58
2022/05/01 02:17:04;;;;;;;13.30;9.60;;;;;;;7.55;100.00;101339.69;5050624;28;20055;-59
2022/05/01 02:19:30;;;;;;;15.23;11.27;;;;;;;7.59;100.00;101349.19;5048777;28;20934;-58
2022/05/01 02:21:55;;;;;;;13.90;11.15;;;;;;;7.56;100.00;101346.66;5050550;28;20038;-59
2022/05/01 02:24:21;;;;;;;16.05;11.63;;;;;;;7.53;100.00;101337.13;5049447;28;20870;-59
2022/05/01 02:26:47;;;;;;;11.02;9.80;;;;;;;7.54;100.00;101340.56;5048550;28;20089;-59
2022/05/01 02:29:13;;;;;;;14.32;11.00;;;;;;;7.59;100.00;101346.56;5049163;28;20089;-59
2022/05/01 02:31:40;;;;;;;13.25;10.70;;;;;;;7.55;100.00;101339.69;5048980;28;20126;-59
2022/05/01 02:34:06;;;;;;;15.38;11.48;;;;;;;7.34;100.00;101314.00;5050335;28;20027;-58
2022/05/01 02:36:32;;;;;;;14.93;11.02;;;;;;;7.45;100.00;101332.94;5050076;28;20059;-59
2022/05/01 02:38:57;;;;;;;15.48;11.48;;;;;;;7.50;100.00;101342.38;5050235;28;20870;-59
2022/05/01 02:41:22;;;;;;;15.20;11.13;;;;;;;7.52;100.00;101350.22;5049126;28;20814;-59
2022/05/01 02:43:48;;;;;;;13.65;11.43;;;;;;;7.50;100.00;101341.56;5050043;28;20853;-59
2022/05/01 02:46:15;;;;;;;13.38;11.10;;;;;;;7.03;100.00;101262.41;5049262;28;20117;-58
2022/05/01 02:48:41;;;;;;;13.55;11.32;;;;;;;7.48;100.00;101338.09;5050029;28;20028;-59
2022/05/01 02:51:06;;;;;;;13.70;11.35;;;;;;;7.46;100.00;101329.44;5049863;28;20035;-58
2022/05/01 02:53:32;;;;;;;16.15;12.38;;;;;;;7.48;100.00;101328.50;5049560;28;20032;-58
2022/05/01 02:56:00;;;;;;;17.10;12.27;;;;;;;7.49;100.00;101340.69;5048128;28;20024;-59
2022/05/01 02:58:27;;;;;;;16.00;12.88;;;;;;;7.47;100.00;101337.22;5049927;28;20525;-59
2022/05/01 03:00:52;;;;;;;15.18;12.60;;;;;;;7.46;100.00;101326.81;5049183;28;20131;-59
2022/05/01 03:03:18;;;;;;;16.10;11.27;;;;;;;7.42;100.00;101322.56;5048231;28;20028;-59
2022/05/01 03:05:43;;;;;;;13.63;11.48;;;;;;;7.40;100.00;101319.13;5048956;28;20121;-59
2022/05/01 03:08:12;;;;;;;14.20;12.05;;;;;;;7.39;100.00;101312.16;5047595;28;20901;-59
2022/05/01 03:10:37;;;;;;;14.38;12.25;;;;;;;7.21;100.00;101287.28;5049530;28;20040;-59
2022/05/01 03:13:03;;;;;;;16.40;11.88;;;;;;;7.24;100.00;101302.91;5048143;28;20054;-59
2022/05/01 03:15:28;;;;;;;16.33;12.95;;;;;;;7.26;100.00;101310.72;5048158;28;20035;-58
2022/05/01 03:23:21;;;;;;;15.27;13.27;;;;;;;7.14;100.00;101310.09;5048207;28;20118;-59
2022/05/01 03:25:47;;;;;;;14.40;12.57;;;;;;;7.19;100.00;101318.72;5048098;28;20389;-58
2022/05/01 03:28:12;;;;;;;16.25;12.88;;;;;;;7.14;100.00;101315.31;5048565;28;20881;-59
2022/05/01 03:30:37;;;;;;;20.85;14.43;;;;;;;7.07;100.00;101310.25;5049076;28;20020;-59
2022/05/01 03:33:07;;;;;;;19.45;14.20;;;;;;;7.03;100.00;101304.22;5052169;28;20089;-58
2022/05/01 03:35:35;;;;;;;18.73;14.02;;;;;;;7.04;100.00;101300.72;5053282;28;20035;-58
2022/05/01 03:38:04;;;;;;;19.13;13.23;;;;;;;7.08;100.00;101306.75;5060877;28;20051;-58
2022/05/01 03:40:29;;;;;;;17.40;14.18;;;;;;;7.08;100.00;101301.53;5056446;28;20032;-58
2022/05/01 03:42:55;;;;;;;16.00;12.68;;;;;;;6.92;100.00;101274.88;5057375;28;20066;-58
2022/05/01 03:45:20;;;;;;;16.70;14.13;;;;;;;7.06;100.00;101300.69;5059961;28;20028;-58
2022/05/01 03:47:46;;;;;;;17.25;13.93;;;;;;;7.05;100.00;101302.44;5058688;28;20016;-58
2022/05/01 03:50:11;;;;;;;18.55;14.57;;;;;;;6.95;100.00;101306.16;5060658;28;20028;-58
2022/05/01 03:52:37;;;;;;;16.92;12.27;;;;;;;6.90;100.00;101307.97;5059725;28;20024;-58
2022/05/01 03:55:03;;;;;;;16.88;13.75;;;;;;;6.90;100.00;101307.97;5059441;28;20903;-58
2022/05/01 03:57:28;;;;;;;21.90;15.13;;;;;;;6.92;100.00;101305.34;5059328;28;20028;-58
2022/05/01 03:59:54;;;;;;;20.50;14.15;;;;;;;6.88;100.00;101299.34;5061014;28;20028;-58
2022/05/01 04:02:19;;;;;;;20.98;15.55;;;;;;;6.88;100.00;101294.09;5061067;28;20046;-59
2022/05/01 04:04:46;;;;;;;24.77;15.85;;;;;;;6.93;100.00;101297.47;5061292;28;20798;-58
2022/05/01 04:07:12;;;;;;;21.20;15.95;;;;;;;6.92;100.00;101308.84;5062161;28;20147;-59
2022/05/01 04:09:37;;;;;;;19.75;16.25;;;;;;;6.88;100.00;101299.34;5064489;28;20024;-58
2022/05/01 04:12:07;;;;;;;17.88;15.98;;;;;;;6.88;100.00;101304.56;5066084;28;20939;-59
2022/05/01 04:14:32;;;;;;;18.15;16.10;;;;;;;6.83;100.00;101298.53;5066230;28;20028;-59
2022/05/01 04:17:01;;;;;;;18.13;16.08;;;;;;;6.86;100.00;101306.31;5070659;28;20054;-59
2022/05/01 04:19:28;;;;;;;21.25;15.45;;;;;;;6.70;100.00;101281.41;5067960;28;20039;-59
2022/05/01 04:21:55;;;;;;;19.13;16.35;;;;;;;6.88;100.00;101307.16;5065771;28;20745;-59
2022/05/01 04:24:21;;;;;;;23.63;16.35;;;;;;;6.89;100.00;101308.91;5068246;28;20020;-58
2022/05/01 04:26:46;;;;;;;20.00;16.30;;;;;;;6.91;100.00;101304.50;5050180;28;20031;-58
2022/05/01 04:31:55;;;;;;;18.23;15.48;;;;;;;6.98;100.00;101300.84;5068286;28;20753;-59
2022/05/01 04:34:21;;;;;;;22.02;16.38;;;;;;;7.00;100.00;101304.28;5068318;28;20084;-59
2022/05/01 04:36:46;;;;;;;24.42;16.55;;;;;;;6.98;100.00;101302.59;5068064;28;20086;-58
2022/05/01 04:39:11;;;;;;;21.75;16.20;;;;;;;7.01;100.00;101310.38;5068373;28;20035;-59
2022/05/01 04:41:37;;;;;;;18.85;15.50;;;;;;;7.06;100.00;101311.16;5068309;28;20900;-59
2022/05/01 04:44:03;;;;;;;18.25;14.90;;;;;;;6.88;100.00;101283.66;5068699;28;20035;-59
2022/05/01 04:46:29;;;;;;;19.83;16.02;;;;;;;6.83;100.00;101259.38;5069374;28;20024;-59
2022/05/01 04:48:54;;;;;;;21.05;15.93;;;;;;;7.08;100.00;101312.84;5068973;28;20098;-59
2022/05/01 04:51:20;;;;;;;18.40;16.40;;;;;;;7.05;100.00;101301.59;5069498;28;20032;-58
2022/05/01 04:53:45;;;;;;;21.73;16.42;;;;;;;7.00;100.00;101303.41;5069485;28;20131;-58
2022/05/01 04:58:55;;;;;;;22.17;17.07;;;;;;;7.11;100.00;101309.28;5068488;28;20128;-59
2022/05/01 05:01:20;;;;;;;19.25;15.63;;;;;;;7.14;100.00;101312.69;5066671;28;20281;-58
2022/05/01 05:03:45;;;;;;;18.45;16.42;;;;;;;7.21;100.00;101318.66;5064444;28;20369;-58
2022/05/01 05:06:11;;;;;;;19.10;15.57;;;;;;;7.23;100.00;101319.50;5063478;28;20024;-58
2022/05/01 05:11:21;;;;;;;18.73;16.55;;;;;;;7.20;100.00;101312.56;5062546;28;20042;-58
2022/05/01 05:13:46;;;;;;;20.73;17.17;;;;;;;7.13;100.00;101300.50;5061983;28;20024;-58
2022/05/01 05:16:14;;;;;;;20.00;15.75;;;;;;;7.09;100.00;101279.72;5059460;28;20028;-58
2022/05/01 05:18:40;;;;;;;21.13;17.17;;;;;;;7.42;100.00;101320.81;5059831;28;20131;-58
2022/05/01 05:21:06;;;;;;;17.83;15.90;;;;;;;7.24;100.00;101296.81;5058847;28;20024;-58
2022/05/01 05:23:32;;;;;;;18.27;15.27;;;;;;;7.49;100.00;101318.91;5056446;28;20032;-57
2022/05/01 05:25:57;;;;;;;18.38;15.60;;;;;;;7.52;100.00;101324.94;5037057;28;20094;-58
2022/05/01 05:28:23;;;;;;;18.90;14.90;;;;;;;7.60;100.00;101330.81;5051025;28;20039;-58
2022/05/01 05:30:48;;;;;;;18.83;15.88;;;;;;;7.62;100.00;101336.03;5052762;28;20783;-58
2022/05/01 05:33:15;;;;;;;16.95;14.90;;;;;;;7.56;100.00;101312.66;5035974;28;20036;-59
2022/05/01 05:35:40;;;;;;;19.20;15.35;;;;;;;7.40;100.00;101283.34;5052930;28;20027;-58
2022/05/01 05:38:06;;;;;;;17.00;15.30;;;;;;;7.77;100.00;101334.84;5052460;28;20091;-58
2022/05/01 05:40:31;;;;;;;16.95;15.10;;;;;;;7.78;100.00;101332.16;5050246;28;20036;-58
2022/05/01 05:42:56;;;;;;;17.85;15.30;;;;;;;7.69;100.00;101301.00;5050091;28;20098;-58
2022/05/01 05:45:22;;;;;;;31.77;17.05;;;;;;;7.86;100.00;101321.53;5036794;28;20056;-58
2022/05/01 05:47:47;;;;;;;20.75;16.55;;;;;;;7.94;100.00;101328.28;5030802;28;20029;-58
2022/05/01 05:50:13;;;;;;;17.55;15.48;;;;;;;8.08;100.00;101330.56;5038550;28;20844;-58
2022/05/01 05:52:38;;;;;;;16.92;15.00;;;;;;;8.02;100.00;101308.03;5038836;28;20843;-58
2022/05/01 05:55:04;;;;;;;16.52;13.65;;;;;;;8.25;100.00;101335.38;5041817;28;20093;-58
2022/05/01 05:57:29;;;;;;;28.35;15.10;;;;;;;8.03;100.00;101296.66;5041480;28;20056;-58
2022/05/01 05:59:55;;;;;;;21.02;15.65;;;;;;;8.29;100.00;101334.41;5037948;28;20020;-58
2022/05/01 06:02:20;;;;;;;20.10;15.93;;;;;;;8.31;100.00;101343.13;5033635;28;20924;-58
2022/05/01 06:04:46;;;;;;;16.25;13.82;;;;;;;8.36;100.00;101342.09;5030058;28;20067;-58
2022/05/01 06:07:11;;;;;;;18.52;15.23;;;;;;;8.42;100.00;101341.91;5029595;28;20257;-58
2022/05/01 06:09:36;;;;;;;18.27;14.95;;;;;;;8.47;100.00;101344.44;5030663;28;20962;-58
2022/05/01 06:12:02;;;;;;;20.38;15.50;;;;;;;8.50;100.00;101349.59;5030430;28;20869;-58
2022/05/01 06:14:28;;;;;;;16.35;14.35;;;;;;;8.60;100.00;101351.91;5032550;28;20032;-58
2022/05/01 06:16:53;;;;;;;19.38;15.75;;;;;;;8.68;100.00;101349.97;5075600;28;20032;-58
2022/05/01 06:19:18;;;;;;;19.88;15.48;;;;;;;8.83;100.00;101347.81;5075458;28;20028;-59
2022/05/01 06:21:44;;;;;;;16.95;14.63;;;;;;;8.94;100.00;101349.22;5051495;28;20032;-59
2022/05/01 06:24:09;;;;;;;16.95;14.48;;;;;;;9.08;100.00;101354.94;5052638;28;20052;-61
2022/05/01 06:26:34;;;;;;;15.77;14.05;;;;;;;9.15;100.00;101351.25;5057142;28;20037;-60
2022/05/01 06:29:01;;;;;;;20.13;14.90;;;;;;;9.29;100.00;101348.22;5027575;28;20031;-59
2022/05/01 06:31:27;;;;;;;20.85;14.50;;;;;;;9.32;100.00;101352.50;5049658;28;20083;-59
2022/05/01 06:33:54;;;;;;;16.55;13.75;;;;;;;9.37;100.00;101355.84;5030182;28;20051;-59
2022/05/01 06:36:19;;;;;;;18.95;14.25;;;;;;;9.45;100.00;101353.84;5048402;28;20024;-59
2022/05/01 06:38:45;;;;;;;14.05;12.60;;;;;;;9.11;100.00;101281.44;5049930;28;20032;-59
2022/05/01 06:41:11;;;;;;;18.23;13.98;;;;;;;9.64;100.00;101349.75;5045761;28;20810;-58
2022/05/01 06:43:37;;;;;;;17.15;14.38;;;;;;;9.75;100.00;101347.66;5038850;28;20029;-59
2022/05/01 06:46:03;;;;;;;14.75;12.85;;;;;;;9.76;100.00;101341.53;5024233;28;20332;-58
2022/05/01 06:48:28;;;;;;;14.77;13.10;;;;;;;9.93;100.00;101351.47;5045039;28;20028;-58
2022/05/01 06:50:54;;;;;;;19.15;13.77;;;;;;;9.95;100.00;101355.75;5049552;28;20073;-59
2022/05/01 06:53:19;;;;;;;17.67;12.73;;;;;;;9.84;100.00;101351.75;5049336;28;20020;-59
2022/05/01 06:55:45;;;;;;;42.80;28.52;;;;;;;9.71;100.00;101336.41;5048207;28;20082;-60
2022/05/01 06:58:10;;;;;;;23.80;14.95;;;;;;;9.86;100.00;101363.94;5070301;28;20356;-57
2022/05/01 07:00:36;;;;;;;16.00;12.00;;;;;;;9.77;100.00;101367.69;5095203;28;20459;-58
2022/05/01 07:03:02;;;;;;;16.30;13.05;;;;;;;9.40;100.00;101293.66;5095304;28;20031;-58
2022/05/01 07:05:27;;;;;;;14.23;12.48;;;;;;;9.76;100.00;101352.03;5081456;28;20032;-58
2022/05/01 07:07:54;;;;;;;15.60;13.63;;;;;;;9.91;100.00;101354.13;5074921;28;20458;-58
2022/05/01 07:10:20;;;;;;;16.60;14.27;;;;;;;9.98;100.00;101344.28;5074141;28;20035;-58
2022/05/01 07:12:46;;;;;;;18.42;13.40;;;;;;;10.13;100.00;101359.56;5074574;28;20028;-58
2022/05/01 07:15:11;;;;;;;23.30;14.40;;;;;;;10.17;100.00;101361.22;5074560;28;20536;-58
2022/05/01 07:17:37;;;;;;;17.23;12.55;;;;;;;10.22;100.00;101365.41;5074438;28;20052;-58
2022/05/01 07:20:02;;;;;;;15.23;13.10;;;;;;;10.27;100.00;101365.25;5062491;28;20048;-57
2022/05/01 07:22:28;;;;;;;16.70;13.88;;;;;;;10.31;100.00;101373.91;5059661;28;20103;-57
2022/05/01 07:24:54;;;;;;;19.38;13.43;;;;;;;10.25;100.00;101362.66;5057713;28;20036;-58
2022/05/01 07:27:19;;;;;;;15.40;12.77;;;;;;;10.02;100.00;101348.53;5074554;28;20035;-58
2022/05/01 07:29:44;;;;;;;17.92;13.38;;;;;;;10.12;100.00;101363.09;5060354;28;20167;-58
2022/05/01 07:32:10;;;;;;;14.57;12.38;;;;;;;10.30;100.00;101372.16;5045895;28;20222;-59
2022/05/01 07:34:36;;;;;;;27.30;12.65;;;;;;;10.43;100.00;101378.72;5047165;28;20881;-59
2022/05/01 07:37:02;;;;;;;16.75;12.70;;;;;;;10.32;100.00;101379.09;5046843;28;20020;-60
2022/05/01 07:39:27;;;;;;;14.65;11.70;;;;;;;10.38;100.00;101360.47;5047087;28;20835;-58
2022/05/01 07:41:52;;;;;;;13.77;11.65;;;;;;;10.51;100.00;101363.56;5046882;28;20906;-59
2022/05/01 07:44:18;;;;;;;12.88;11.40;;;;;;;10.59;100.00;101375.53;5048039;28;20040;-59
2022/05/01 07:46:43;;;;;;;20.17;13.88;;;;;;;10.37;100.00;101318.53;5050179;28;20024;-60
2022/05/01 07:49:09;;;;;;;18.70;12.35;;;;;;;10.77;100.00;101368.78;5031275;28;20065;-57
2022/05/01 07:51:35;;;;;;;15.82;12.35;;;;;;;10.77;100.00;101369.63;5035306;28;20143;-58
2022/05/01 07:54:01;;;;;;;17.05;13.10;;;;;;;10.60;100.00;101366.75;5026214;28;20030;-58
2022/05/01 07:56:28;;;;;;;15.60;11.57;;;;;;;10.64;100.00;101367.50;5057891;28;20032;-59
2022/05/01 07:58:53;;;;;;;15.68;12.85;;;;;;;10.52;100.00;101357.38;5037493;28;20764;-58
2022/05/01 08:01:19;;;;;;;17.98;12.65;;;;;;;10.43;100.00;101324.41;5036522;28;20028;-59
2022/05/01 08:06:29;;;;;;;14.27;11.68;;;;;;;11.04;100.00;101359.91;5056409;28;20149;-59
2022/05/01 08:08:54;;;;;;;18.00;12.90;;;;;;;11.18;100.00;101356.75;5078161;28;20127;-59
2022/05/01 08:11:19;;;;;;;16.38;11.70;;;;;;;11.26;100.00;101355.53;5075871;28;20031;-58
2022/05/01 08:13:45;;;;;;;14.02;11.15;;;;;;;11.41;100.00;101362.00;5072295;28;20391;-58
2022/05/01 08:16:10;;;;;;;14.10;10.93;;;;;;;11.50;100.00;101366.03;5089523;28;20038;-58
2022/05/01 08:21:21;;;;;;;12.68;10.82;;;;;;;11.63;100.00;101369.91;5088859;28;20089;-56
2022/05/01 08:23:46;;;;;;;19.67;10.93;;;;;;;11.47;100.00;101329.31;5075248;28;20024;-59
2022/05/01 08:26:13;;;;;;;13.13;10.88;;;;;;;11.79;100.00;101363.19;5093329;28;20371;-58
2022/05/01 08:28:41;;;;;;;11.95;9.85;;;;;;;11.90;100.00;101366.22;5093502;28;20020;-57
2022/05/01 08:31:07;;;;;;;12.80;9.82;;;;;;;12.05;100.00;101359.50;5093332;28;20335;-57
2022/05/01 08:33:33;;;;;;;16.10;10.02;;;;;;;12.22;100.00;101363.16;5093455;28;20035;-57
2022/05/01 08:35:59;;;;;;;11.18;7.43;;;;;;;12.32;100.00;101363.63;5092857;28;20047;-58
2022/05/01 08:38:25;;;;;;;8.73;6.45;;;;;;;12.50;100.00;101362.88;5092839;28;20035;-58
2022/05/01 08:40:51;;;;;;;8.65;6.65;;;;;;;12.30;100.00;101297.78;5092861;28;20031;-65
2022/05/01 08:43:22;;;;;;;6.35;3.97;;;;;;;12.81;100.00;101363.22;5066948;28;20118;-57
2022/05/01 08:45:53;;;;;;;8.02;5.40;;;;;;;12.84;100.00;101354.34;5048236;28;20028;-58
2022/05/01 08:48:24;;;;;;;9.02;5.60;;;;;;;12.79;100.00;101348.41;5046801;28;20071;-58
2022/05/01 08:50:51;;;;;;;11.18;5.70;;;;;;;12.53;97.17;101344.28;5046179;28;20028;-57
2022/05/01 08:53:17;;;;;;;6.40;4.90;;;;;;;12.23;92.19;101333.22;5048097;28;20081;-58
2022/05/01 08:55:43;;;;;;;8.32;6.47;;;;;;;12.43;100.00;101360.53;5047167;28;20067;-58
2022/05/01 08:58:09;;;;;;;10.63;6.68;;;;;;;12.66;100.00;101363.91;5046460;28;20024;-58
2022/05/01 09:00:34;;;;;;;9.90;6.93;;;;;;;12.88;100.00;101361.19;5047324;28;20063;-58
2022/05/01 09:03:03;;;;;;;19.17;5.78;;;;;;;12.69;89.29;101357.63;5046822;28;20258;-57
2022/05/01 09:05:28;;;;;;;7.03;5.40;;;;;;;12.65;92.34;101356.06;5027832;28;20978;-58
2022/05/01 09:07:53;;;;;;;10.60;6.07;;;;;;;12.76;95.33;101359.94;5045750;28;20057;-58
2022/05/01 09:10:20;;;;;;;8.63;5.43;;;;;;;12.87;100.00;101346.28;5045617;28;20925;-58
2022/05/01 09:12:52;;;;;;;10.75;6.80;;;;;;;12.83;100.00;101310.44;5027460;28;20241;-57
2022/05/01 09:15:35;;;;;;;7.72;5.40;;;;;;;12.91;90.10;101331.19;5044827;28;20890;-57
2022/05/01 09:18:05;;;;;;;7.88;5.97;;;;;;;12.99;92.20;101358.06;5045706;28;20085;-57
2022/05/01 09:20:32;;;;;;;8.13;6.03;;;;;;;12.89;92.51;101360.25;5044730;28;20035;-58
2022/05/01 09:22:58;;;;;;;11.45;6.40;;;;;;;12.78;90.37;101347.53;5039668;28;20032;-58
2022/05/01 09:25:27;;;;;;;10.85;6.28;;;;;;;12.88;95.73;101352.41;5036246;28;20028;-58
2022/05/01 09:27:56;;;;;;;8.10;6.50;;;;;;;12.84;93.26;101356.97;5008139;28;20043;-58
2022/05/01 09:30:22;;;;;;;6.53;5.55;;;;;;;12.79;93.62;101338.72;5027093;28;20067;-58
2022/05/01 09:32:48;;;;;;;8.70;6.72;;;;;;;13.12;97.48;101370.66;5025891;28;20977;-58
2022/05/01 09:35:35;;;;;;;9.35;6.47;;;;;;;13.47;89.42;101369.06;5032812;28;20067;-57
2022/05/01 09:38:13;;;;;;;7.15;5.65;;;;;;;13.76;92.18;101370.31;5025493;28;20055;-58
2022/05/01 09:40:39;;;;;;;7.43;5.53;;;;;;;14.10;88.48;101365.13;5045228;28;20883;-58
2022/05/01 09:43:04;;;;;;;8.82;6.13;;;;;;;14.32;84.94;101360.50;5046125;28;20033;-58
2022/05/01 09:45:33;;;;;;;15.70;6.70;;;;;;;14.70;86.76;101363.00;5045425;28;20142;-58
2022/05/01 09:47:59;;;;;;;7.90;5.93;;;;;;;15.05;82.72;101361.16;5041415;28;20237;-58
2022/05/01 09:50:43;;;;;;;7.63;5.63;;;;;;;15.17;79.28;101373.75;5025941;28;20032;-58
2022/05/01 09:53:09;;;;;;;8.10;6.10;;;;;;;15.19;75.28;101367.41;5025841;28;20024;-58
2022/05/01 09:55:35;;;;;;;11.23;6.80;;;;;;;15.23;76.94;101371.63;5043605;28;20534;-58
2022/05/01 09:58:11;;;;;;;7.40;5.47;;;;;;;15.44;75.07;101360.81;5072053;28;20483;-58
2022/05/01 10:00:39;;;;;;;9.82;5.82;;;;;;;15.63;78.68;101358.88;5064907;28;20029;-59
2022/05/01 10:03:23;;;;;;;9.38;6.03;;;;;;;15.87;76.29;101356.63;5026507;28;20020;-58
2022/05/01 10:05:49;;;;;;;8.13;5.45;;;;;;;15.77;75.39;101319.22;5028552;28;20020;-57
2022/05/01 10:08:16;;;;;;;8.40;6.47;;;;;;;15.96;72.50;101356.97;5027447;28;20024;-58
2022/05/01 10:10:42;;;;;;;10.38;6.57;;;;;;;15.54;69.60;101359.38;5030470;28;20070;-59
2022/05/01 10:13:08;;;;;;;9.48;5.82;;;;;;;15.29;72.88;101352.75;5020734;28;20028;-59
2022/05/01 10:15:34;;;;;;;7.88;5.85;;;;;;;15.24;73.06;101338.06;5047853;28;20039;-57
2022/05/01 10:18:01;;;;;;;7.53;5.43;;;;;;;15.10;75.84;101341.44;5049697;28;20092;-57
2022/05/01 10:20:26;;;;;;;8.38;6.15;;;;;;;15.20;75.06;101347.09;5056383;28;20103;-58
2022/05/01 10:22:52;;;;;;;7.47;5.75;;;;;;;15.28;75.61;101342.22;5059674;28;20028;-59
2022/05/01 10:25:18;;;;;;;10.23;6.93;;;;;;;15.44;76.38;101343.13;5073980;28;20052;-58
2022/05/01 10:27:52;;;;;;;8.50;5.75;;;;;;;15.76;74.74;101344.00;5040160;28;20029;-59
2022/05/01 10:33:27;;;;;;;6.10;4.78;;;;;;;16.17;70.02;101334.53;5024514;28;20484;-58
2022/05/01 10:36:15;;;;;;;11.48;5.90;;;;;;;16.12;70.73;101336.56;5012881;28;20142;-58
2022/05/01 10:39:02;;;;;;;11.35;6.65;;;;;;;15.97;69.16;101334.81;5051729;28;20441;-58
2022/05/01 10:41:28;;;;;;;10.85;6.13;;;;;;;15.63;69.48;101308.53;5074741;28;20040;-58
2022/05/01 10:43:56;;;;;;;10.40;6.13;;;;;;;15.74;69.90;101335.28;5074530;28;20054;-58
2022/05/01 10:46:21;;;;;;;6.00;5.38;;;;;;;15.81;69.54;101337.50;5049915;28;20032;-58
2022/05/01 10:48:47;;;;;;;9.23;6.78;;;;;;;15.76;68.77;101328.94;5028859;28;20025;-59
2022/05/01 10:51:31;;;;;;;10.07;7.30;;;;;;;15.83;68.77;101329.44;5028751;28;20070;-59
2022/05/01 10:54:14;;;;;;;9.25;6.40;;;;;;;15.66;64.58;101318.94;5034848;28;20030;-59
2022/05/01 10:56:42;;;;;;;8.98;6.45;;;;;;;15.44;67.23;101321.06;5029369;28;20028;-59
2022/05/01 10:59:29;;;;;;;9.00;6.60;;;;;;;15.45;69.24;101318.31;5029488;28;20058;-60
2022/05/01 11:01:56;;;;;;;16.60;6.85;;;;;;;15.63;68.21;101312.03;5032186;28;20070;-59
2022/05/01 11:04:21;;;;;;;8.32;6.30;;;;;;;15.68;67.18;101290.59;5042249;28;20082;-59
2022/05/01 11:06:50;;;;;;;8.05;5.45;;;;;;;15.84;66.69;101307.31;5062112;28;20028;-59
2022/05/01 11:09:19;;;;;;;8.07;6.78;;;;;;;15.70;68.47;101286.03;5090139;28;20036;-59
2022/05/01 11:11:45;;;;;;;11.60;6.90;;;;;;;15.80;66.81;101297.81;5064654;28;20083;-58
2022/05/01 11:14:13;;;;;;;9.20;7.38;;;;;;;16.05;69.50;101291.97;5051641;28;20033;-58
2022/05/01 11:16:50;;;;;;;10.60;7.13;;;;;;;16.43;67.81;101292.31;5065944;28;20110;-58
2022/05/01 11:19:15;;;;;;;10.07;6.97;;;;;;;16.67;66.50;101290.88;5063289;28;20044;-58
2022/05/01 11:21:40;;;;;;;9.35;6.60;;;;;;;16.73;67.03;101290.50;5074129;28;20039;-58
2022/05/01 11:24:07;;;;;;;8.38;6.85;;;;;;;16.56;67.13;101285.38;5074355;28;20475;-58
2022/05/01 11:26:33;;;;;;;8.05;6.57;;;;;;;16.53;64.60;101288.16;5073948;28;20060;-58
2022/05/01 11:29:13;;;;;;;11.23;7.05;;;;;;;16.39;66.63;101285.53;5073001;28;20785;-58
2022/05/01 11:31:39;;;;;;;7.70;6.70;;;;;;;16.09;68.00;101290.81;5074094;28;20040;-58
2022/05/01 11:34:16;;;;;;;11.35;7.40;;;;;;;15.69;64.92;101279.03;5073904;28;20039;-58
2022/05/01 11:36:57;;;;;;;14.23;6.88;;;;;;;15.39;64.66;101281.59;5073819;28;20475;-58
2022/05/01 11:39:45;;;;;;;12.57;6.68;;;;;;;15.28;66.56;101274.22;5073616;28;20031;-58
2022/05/01 11:42:25;;;;;;;9.65;6.63;;;;;;;15.30;68.70;101269.72;5058932;28;20036;-58
2022/05/01 11:44:52;;;;;;;8.90;6.93;;;;;;;15.46;69.17;101271.50;5028086;28;20045;-58
2022/05/01 11:47:19;;;;;;;8.88;6.70;;;;;;;15.75;70.58;101263.63;5040126;28;20156;-58